Terminal Aerodrome Forecast
Issued by NWS

Home | Current Version | Previous Version | Text Only | Print | Product List | Glossary On
Versions: 1 2 3 4 5 6 7 8 9 10 11 12 13 14 15
000
FTUS45 KGJT 241120
TAFRIL
TAF
KRIL 241120Z 2412/2512 09005KT P6SM BKN110
     FM242000 26007KT P6SM VCSH SCT120
     FM242300 30008KT P6SM VCSH SCT080 BKN120
     FM250200 11005KT P6SM SCT120
     FM251100 00000KT P6SM FEW250=

USA.gov is the U.S. government's official web portal to all federal, state and local government web resources and services.